Time;durP1;ratioP1;P1;durP2;ratioP2;P2;SDS_P1;SDS_P2;PMS_P1;PMS_P2;Temp;Humidity;BMP_temperature;BMP_pressure;BME280_temperature;BME280_humidity;BME280_pressure;Samples;Min_cycle;Max_cycle;Signal;HPM_P1;HPM_P2
2022/07/29 00:01:52;;;;;;;;;;;23.80;60.50;;;;;;5086782;27;82104;-46
2022/07/29 00:04:17;;;;;;;;;;;23.70;60.50;;;;;;5086530;27;83981;-50
2022/07/29 00:06:43;;;;;;;;;;;23.70;60.50;;;;;;5086243;27;83220;-51
2022/07/29 00:09:10;;;;;;;;;;;23.80;60.50;;;;;;5086708;27;82052;-46
2022/07/29 00:11:35;;;;;;;;;;;23.70;60.50;;;;;;5086850;27;82473;-51
2022/07/29 00:14:01;;;;;;;;;;;23.70;60.60;;;;;;5089554;27;84178;-48
2022/07/29 00:16:26;;;;;;;;;;;23.70;60.60;;;;;;5086407;27;83093;-45
2022/07/29 00:18:52;;;;;;;;;;;23.70;60.60;;;;;;5086620;27;82997;-48
2022/07/29 00:21:17;;;;;;;;;;;23.70;60.50;;;;;;5086291;27;83888;-49
2022/07/29 00:23:42;;;;;;;;;;;23.70;60.60;;;;;;5086544;27;83403;-51
2022/07/29 00:26:08;;;;;;;;;;;23.70;60.60;;;;;;5086312;27;82179;-48
2022/07/29 00:28:34;;;;;;;;;;;23.60;60.50;;;;;;5086473;27;82142;-49
2022/07/29 00:31:00;;;;;;;;;;;23.60;60.60;;;;;;5086075;27;83930;-49
2022/07/29 00:33:25;;;;;;;;;;;23.60;60.70;;;;;;5086305;27;82940;-46
2022/07/29 00:35:51;;;;;;;;;;;23.60;60.60;;;;;;5089210;27;82182;-47
2022/07/29 00:38:18;;;;;;;;;;;23.60;60.60;;;;;;5086794;27;82313;-47
2022/07/29 00:40:44;;;;;;;;;;;23.50;60.60;;;;;;5086458;27;82012;-48
2022/07/29 00:43:10;;;;;;;;;;;23.50;60.70;;;;;;5086491;27;82504;-48
2022/07/29 00:45:36;;;;;;;;;;;23.50;60.60;;;;;;5085098;27;84466;-47
2022/07/29 00:48:03;;;;;;;;;;;23.50;60.50;;;;;;5085950;27;81952;-47
2022/07/29 00:50:28;;;;;;;;;;;23.50;60.50;;;;;;5085806;27;84249;-45
2022/07/29 00:52:54;;;;;;;;;;;23.50;60.60;;;;;;5086141;27;82891;-49
2022/07/29 00:55:19;;;;;;;;;;;23.50;60.60;;;;;;5086244;27;83268;-48
2022/07/29 00:57:45;;;;;;;;;;;23.50;60.60;;;;;;5088480;27;82487;-48
2022/07/29 01:00:13;;;;;;;;;;;23.50;60.60;;;;;;5089651;27;81840;-48
2022/07/29 01:02:38;;;;;;;;;;;23.50;60.50;;;;;;5089786;27;84089;-49
2022/07/29 01:05:04;;;;;;;;;;;23.40;60.50;;;;;;5089013;27;83091;-51
2022/07/29 01:07:31;;;;;;;;;;;23.40;60.50;;;;;;5089580;27;82315;-48
2022/07/29 01:09:57;;;;;;;;;;;23.40;60.50;;;;;;5088917;27;83001;-46
2022/07/29 01:12:24;;;;;;;;;;;23.40;60.50;;;;;;5089210;27;83024;-47
2022/07/29 01:14:50;;;;;;;;;;;23.40;60.60;;;;;;5089422;27;82009;-45
2022/07/29 01:17:31;;;;;;;;;;;23.40;60.60;;;;;;5092337;27;83021;-48
2022/07/29 01:19:59;;;;;;;;;;;23.40;60.50;;;;;;5089432;27;82098;-49
2022/07/29 01:22:27;;;;;;;;;;;23.30;60.50;;;;;;5089020;27;83989;-48
2022/07/29 01:25:05;;;;;;;;;;;23.40;60.60;;;;;;5088980;27;83057;-50
2022/07/29 01:27:49;;;;;;;;;;;23.30;61.20;;;;;;5089412;27;81395;-52
2022/07/29 01:30:15;;;;;;;;;;;23.30;60.50;;;;;;5089304;27;81963;-49
2022/07/29 01:32:40;;;;;;;;;;;23.30;60.50;;;;;;5089023;27;83182;-47
2022/07/29 01:35:06;;;;;;;;;;;23.30;60.50;;;;;;5086742;27;83000;-49
2022/07/29 01:37:42;;;;;;;;;;;23.30;60.50;;;;;;5088830;27;84773;-51
2022/07/29 01:40:13;;;;;;;;;;;23.30;60.50;;;;;;5091476;27;83365;-52
2022/07/29 01:42:42;;;;;;;;;;;23.30;60.50;;;;;;5089120;27;82630;-46
2022/07/29 01:45:19;;;;;;;;;;;23.20;60.40;;;;;;5088552;27;83771;-48
2022/07/29 01:48:14;;;;;;;;;;;23.30;60.50;;;;;;5089021;27;82006;-46
2022/07/29 01:50:45;;;;;;;;;;;23.20;60.40;;;;;;5078619;27;82485;-48
2022/07/29 01:53:12;;;;;;;;;;;23.20;60.50;;;;;;5089290;27;82317;-48
2022/07/29 01:55:40;;;;;;;;;;;23.20;60.50;;;;;;5088954;27;83383;-49
2022/07/29 01:58:06;;;;;;;;;;;23.20;60.40;;;;;;5088552;27;82947;-51
2022/07/29 02:00:32;;;;;;;;;;;23.10;60.40;;;;;;5087831;27;84323;-46
2022/07/29 02:02:59;;;;;;;;;;;23.10;60.40;;;;;;5091404;27;82018;-53
2022/07/29 02:05:26;;;;;;;;;;;23.10;60.40;;;;;;5087951;27;81690;-52
2022/07/29 02:07:53;;;;;;;;;;;23.10;60.40;;;;;;5088564;27;82038;-49
2022/07/29 02:10:20;;;;;;;;;;;23.10;60.40;;;;;;5088576;27;82507;-46
2022/07/29 02:12:47;;;;;;;;;;;23.10;60.40;;;;;;5088394;27;83217;-48
2022/07/29 02:15:14;;;;;;;;;;;23.10;60.40;;;;;;5088445;27;82011;-50
2022/07/29 02:17:41;;;;;;;;;;;23.10;60.40;;;;;;5088627;27;83118;-47
2022/07/29 02:20:08;;;;;;;;;;;23.10;60.30;;;;;;5087812;27;83201;-47
2022/07/29 02:22:34;;;;;;;;;;;23.00;60.40;;;;;;5088135;27;82092;-49
2022/07/29 02:25:00;;;;;;;;;;;23.10;60.40;;;;;;5090412;27;82744;-51
2022/07/29 02:27:28;;;;;;;;;;;23.00;60.40;;;;;;5088239;27;83008;-49
2022/07/29 02:29:54;;;;;;;;;;;23.00;60.30;;;;;;5088030;27;82501;-46
2022/07/29 02:32:21;;;;;;;;;;;23.00;60.40;;;;;;5088130;27;82724;-48
2022/07/29 02:34:47;;;;;;;;;;;23.00;60.30;;;;;;5088203;27;82010;-44
2022/07/29 02:37:13;;;;;;;;;;;23.00;60.40;;;;;;5087984;27;82370;-47
2022/07/29 02:39:40;;;;;;;;;;;23.00;60.40;;;;;;5087890;27;82100;-51
2022/07/29 02:42:08;;;;;;;;;;;22.90;60.90;;;;;;5088766;27;81725;-48
2022/07/29 02:44:34;;;;;;;;;;;22.90;60.40;;;;;;5087937;27;82059;-50
2022/07/29 02:47:02;;;;;;;;;;;22.90;60.30;;;;;;5090131;27;84270;-47
2022/07/29 02:49:40;;;;;;;;;;;22.90;60.40;;;;;;5087371;27;82882;-45
2022/07/29 02:52:06;;;;;;;;;;;22.90;60.30;;;;;;5087524;27;83275;-51
2022/07/29 02:54:40;;;;;;;;;;;22.90;60.30;;;;;;5088015;27;82035;-51
2022/07/29 02:57:10;;;;;;;;;;;22.90;60.30;;;;;;5087667;27;82799;-48
2022/07/29 02:59:37;;;;;;;;;;;22.80;60.30;;;;;;5086731;27;83147;-46
2022/07/29 03:02:04;;;;;;;;;;;22.80;60.30;;;;;;5087550;27;81937;-51
2022/07/29 03:04:30;;;;;;;;;;;22.80;60.30;;;;;;5087450;27;82239;-48
2022/07/29 03:06:58;;;;;;;;;;;22.80;60.40;;;;;;5087323;27;81938;-49
2022/07/29 03:09:24;;;;;;;;;;;22.80;60.30;;;;;;5090438;27;81973;-49
2022/07/29 03:11:50;;;;;;;;;;;22.80;60.30;;;;;;5087339;27;83156;-44
2022/07/29 03:14:16;;;;;;;;;;;22.70;60.40;;;;;;5086743;27;82794;-48
2022/07/29 03:16:41;;;;;;;;;;;22.80;60.30;;;;;;5087250;27;83626;-50
2022/07/29 03:19:07;;;;;;;;;;;22.70;60.40;;;;;;5087188;27;82333;-49
2022/07/29 03:21:33;;;;;;;;;;;22.70;60.30;;;;;;5086666;27;82134;-49
2022/07/29 03:23:58;;;;;;;;;;;22.70;60.30;;;;;;5087542;27;82222;-49
2022/07/29 03:26:25;;;;;;;;;;;22.70;60.30;;;;;;5087310;27;82830;-50
2022/07/29 03:28:50;;;;;;;;;;;22.70;60.30;;;;;;5089703;27;82058;-51
2022/07/29 03:31:16;;;;;;;;;;;22.70;60.30;;;;;;5087810;27;82526;-49
2022/07/29 03:33:41;;;;;;;;;;;22.70;60.30;;;;;;5087320;27;82063;-52
2022/07/29 03:36:06;;;;;;;;;;;22.70;60.30;;;;;;5087285;27;81978;-51
2022/07/29 03:38:33;;;;;;;;;;;22.70;60.40;;;;;;5086363;27;83168;-49
2022/07/29 03:41:01;;;;;;;;;;;22.60;60.40;;;;;;5087178;27;81986;-53
2022/07/29 03:43:30;;;;;;;;;;;22.60;60.40;;;;;;5086666;27;84066;-52
2022/07/29 03:45:56;;;;;;;;;;;22.60;60.40;;;;;;5086830;27;83508;-48
2022/07/29 03:48:24;;;;;;;;;;;22.60;60.30;;;;;;5087115;27;82046;-51
2022/07/29 03:50:50;;;;;;;;;;;22.50;60.30;;;;;;5089479;27;82258;-52
2022/07/29 03:53:16;;;;;;;;;;;22.60;60.30;;;;;;5087404;27;83174;-49
2022/07/29 03:55:45;;;;;;;;;;;22.50;60.30;;;;;;5087502;27;81559;-47
2022/07/29 03:58:12;;;;;;;;;;;22.50;60.30;;;;;;5086239;27;84705;-51
2022/07/29 04:00:38;;;;;;;;;;;22.50;60.40;;;;;;5086475;27;82084;-50
2022/07/29 04:03:04;;;;;;;;;;;22.50;60.40;;;;;;5086352;27;82938;-47
2022/07/29 04:05:29;;;;;;;;;;;22.40;60.50;;;;;;5086271;27;83122;-49
2022/07/29 04:07:55;;;;;;;;;;;22.40;60.50;;;;;;5086992;27;82161;-47
2022/07/29 04:10:21;;;;;;;;;;;22.40;60.60;;;;;;5086656;27;82497;-49
2022/07/29 04:12:46;;;;;;;;;;;22.40;60.50;;;;;;5089067;27;83184;-45
2022/07/29 04:15:12;;;;;;;;;;;22.40;60.50;;;;;;5086732;27;81946;-48
2022/07/29 04:17:37;;;;;;;;;;;22.40;60.50;;;;;;5086059;27;84271;-50
2022/07/29 04:20:03;;;;;;;;;;;22.40;60.50;;;;;;5086944;27;81350;-51
2022/07/29 04:22:29;;;;;;;;;;;22.40;60.50;;;;;;5086636;27;82012;-48
2022/07/29 04:24:55;;;;;;;;;;;22.30;60.50;;;;;;5086521;27;83047;-48
2022/07/29 04:27:20;;;;;;;;;;;22.40;60.40;;;;;;5085702;27;83082;-50
2022/07/29 04:29:46;;;;;;;;;;;22.30;60.40;;;;;;5086586;27;83461;-48
2022/07/29 04:32:11;;;;;;;;;;;22.40;60.40;;;;;;5086679;27;83224;-48
2022/07/29 04:34:37;;;;;;;;;;;22.40;60.50;;;;;;5092457;27;82062;-46
2022/07/29 04:37:02;;;;;;;;;;;22.30;60.40;;;;;;5090044;27;82150;-52
2022/07/29 04:39:28;;;;;;;;;;;22.30;60.40;;;;;;5090224;27;82095;-51
2022/07/29 04:41:53;;;;;;;;;;;22.30;60.50;;;;;;5090313;27;82445;-48
2022/07/29 04:44:19;;;;;;;;;;;22.30;60.70;;;;;;5090162;27;82750;-47
2022/07/29 04:46:45;;;;;;;;;;;22.30;60.60;;;;;;5089706;27;81994;-52
2022/07/29 04:49:10;;;;;;;;;;;22.30;60.60;;;;;;5089656;27;82915;-49
2022/07/29 04:51:36;;;;;;;;;;;22.20;60.50;;;;;;5088836;27;83987;-47
2022/07/29 04:54:01;;;;;;;;;;;22.20;60.50;;;;;;5089841;27;82181;-51
2022/07/29 04:56:27;;;;;;;;;;;22.20;60.50;;;;;;5092159;27;83200;-49
2022/07/29 04:58:52;;;;;;;;;;;22.20;60.60;;;;;;5089272;27;82166;-52
2022/07/29 05:01:18;;;;;;;;;;;22.20;60.60;;;;;;5089710;27;82058;-49
2022/07/29 05:03:44;;;;;;;;;;;22.20;61.20;;;;;;5089260;27;83578;-47
2022/07/29 05:06:10;;;;;;;;;;;22.20;60.50;;;;;;5088985;27;82073;-50
2022/07/29 05:08:36;;;;;;;;;;;22.20;60.60;;;;;;5090178;27;82361;-50
2022/07/29 05:11:01;;;;;;;;;;;22.20;60.80;;;;;;5089186;27;82899;-48
2022/07/29 05:13:27;;;;;;;;;;;22.20;60.60;;;;;;5089360;27;82155;-48
2022/07/29 05:15:53;;;;;;;;;;;22.20;60.50;;;;;;5088546;27;84006;-46
2022/07/29 05:18:18;;;;;;;;;;;22.30;60.30;;;;;;5091565;27;84969;-50
2022/07/29 05:20:44;;;;;;;;;;;22.30;60.30;;;;;;5089407;27;82019;-50
2022/07/29 05:23:12;;;;;;;;;;;22.30;60.30;;;;;;5088970;27;84234;-45
2022/07/29 05:25:37;;;;;;;;;;;22.30;60.50;;;;;;5088839;27;82053;-45
2022/07/29 05:28:03;;;;;;;;;;;22.30;60.50;;;;;;5088864;27;81843;-49
2022/07/29 05:30:29;;;;;;;;;;;22.20;60.50;;;;;;5089155;27;82903;-53
2022/07/29 05:32:54;;;;;;;;;;;22.20;60.50;;;;;;5089771;27;81407;-47
2022/07/29 05:35:20;;;;;;;;;;;22.30;60.30;;;;;;5089165;27;81926;-50
2022/07/29 05:37:45;;;;;;;;;;;22.30;60.60;;;;;;5091571;27;83057;-50
2022/07/29 05:40:11;;;;;;;;;;;22.20;60.50;;;;;;5088319;27;83027;-45
2022/07/29 05:42:36;;;;;;;;;;;22.20;60.50;;;;;;5088762;27;82142;-47
2022/07/29 05:45:02;;;;;;;;;;;22.20;60.70;;;;;;5088379;27;82081;-49
2022/07/29 05:47:28;;;;;;;;;;;22.20;60.60;;;;;;5089085;27;81996;-48
2022/07/29 05:49:54;;;;;;;;;;;22.30;60.70;;;;;;5088837;27;82399;-45
2022/07/29 05:52:19;;;;;;;;;;;22.20;60.60;;;;;;5089101;27;82131;-46
2022/07/29 05:54:45;;;;;;;;;;;22.20;60.70;;;;;;5088929;27;82339;-51
2022/07/29 05:57:17;;;;;;;;;;;22.30;60.50;;;;;;5088936;27;81998;-51
2022/07/29 05:59:42;;;;;;;;;;;22.30;60.60;;;;;;5091525;27;82011;-50
2022/07/29 06:02:08;;;;;;;;;;;22.20;60.70;;;;;;5088529;27;82836;-48
2022/07/29 06:04:33;;;;;;;;;;;22.20;60.70;;;;;;5088147;27;83256;-50
2022/07/29 06:06:59;;;;;;;;;;;22.20;60.70;;;;;;5088775;27;82974;-52
2022/07/29 06:09:25;;;;;;;;;;;22.20;60.60;;;;;;5088571;27;83044;-48
2022/07/29 06:11:52;;;;;;;;;;;22.30;60.70;;;;;;5088126;27;82139;-48
2022/07/29 06:14:17;;;;;;;;;;;22.30;60.70;;;;;;5088278;27;83838;-50
2022/07/29 06:16:43;;;;;;;;;;;22.30;60.90;;;;;;5087904;27;84465;-52
2022/07/29 06:19:08;;;;;;;;;;;22.20;60.90;;;;;;5088498;27;81997;-46
2022/07/29 06:21:34;;;;;;;;;;;22.20;60.70;;;;;;5091360;27;82609;-50
2022/07/29 06:23:59;;;;;;;;;;;22.20;60.80;;;;;;5088129;27;82022;-52
2022/07/29 06:26:25;;;;;;;;;;;22.30;60.90;;;;;;5088013;27;82485;-49
2022/07/29 06:28:50;;;;;;;;;;;22.30;60.90;;;;;;5087366;27;83963;-48
2022/07/29 06:31:16;;;;;;;;;;;22.30;60.80;;;;;;5088258;27;81975;-46
2022/07/29 06:33:41;;;;;;;;;;;22.30;60.90;;;;;;5088225;27;82305;-46
2022/07/29 06:36:07;;;;;;;;;;;22.20;60.90;;;;;;5088128;27;82306;-44
2022/07/29 06:38:33;;;;;;;;;;;22.30;60.90;;;;;;5088069;27;82178;-50
2022/07/29 06:41:02;;;;;;;;;;;22.30;60.90;;;;;;5088116;27;82436;-52
2022/07/29 06:43:28;;;;;;;;;;;22.30;61.00;;;;;;5090446;27;84494;-46
2022/07/29 06:45:54;;;;;;;;;;;22.30;61.00;;;;;;5088337;27;84502;-47
2022/07/29 06:48:19;;;;;;;;;;;22.30;60.80;;;;;;5087878;27;82918;-44
2022/07/29 06:50:45;;;;;;;;;;;22.30;60.70;;;;;;5087994;27;82093;-45
2022/07/29 06:53:11;;;;;;;;;;;22.30;60.90;;;;;;5087106;27;83762;-49
2022/07/29 06:55:37;;;;;;;;;;;22.30;60.90;;;;;;5086953;27;81997;-49
2022/07/29 06:58:02;;;;;;;;;;;22.30;60.80;;;;;;5087214;27;82126;-49
2022/07/29 07:00:28;;;;;;;;;;;22.30;60.90;;;;;;5087665;27;82977;-48
2022/07/29 07:02:53;;;;;;;;;;;22.30;60.80;;;;;;5087578;27;82937;-49
2022/07/29 07:05:19;;;;;;;;;;;22.30;60.90;;;;;;5090289;27;82172;-48
2022/07/29 07:07:44;;;;;;;;;;;22.30;61.00;;;;;;5087646;27;82867;-48
2022/07/29 07:10:10;;;;;;;;;;;22.30;60.90;;;;;;5088281;27;81042;-51
2022/07/29 07:12:35;;;;;;;;;;;22.30;61.80;;;;;;5087208;27;83336;-48
2022/07/29 07:15:01;;;;;;;;;;;22.30;61.10;;;;;;5087226;27;83056;-46
2022/07/29 07:17:26;;;;;;;;;;;22.30;61.00;;;;;;5086902;27;82973;-45
2022/07/29 07:19:52;;;;;;;;;;;22.30;61.20;;;;;;5087396;27;83557;-55
2022/07/29 07:25:01;;;;;;;;;;;22.30;61.00;;;;;;5087262;27;81983;-47
2022/07/29 07:27:27;;;;;;;;;;;22.30;61.00;;;;;;5089802;27;82735;-47
2022/07/29 07:29:53;;;;;;;;;;;22.30;61.00;;;;;;5087007;27;81907;-47
2022/07/29 07:32:19;;;;;;;;;;;22.30;61.00;;;;;;5087379;27;82425;-49
2022/07/29 07:34:44;;;;;;;;;;;22.30;61.10;;;;;;5087666;27;82293;-46
2022/07/29 07:37:10;;;;;;;;;;;22.30;61.20;;;;;;5087292;27;81952;-48
2022/07/29 07:39:35;;;;;;;;;;;22.30;61.00;;;;;;5087325;27;82384;-51
2022/07/29 07:42:01;;;;;;;;;;;22.40;61.20;;;;;;5086260;27;84066;-46
2022/07/29 07:44:26;;;;;;;;;;;22.30;61.20;;;;;;5087321;27;82093;-44
2022/07/29 07:46:52;;;;;;;;;;;22.30;61.10;;;;;;5089493;27;84020;-47
2022/07/29 07:49:17;;;;;;;;;;;22.40;61.20;;;;;;5087077;27;81861;-47
2022/07/29 07:51:43;;;;;;;;;;;22.30;61.10;;;;;;5086715;27;83895;-47
2022/07/29 07:54:09;;;;;;;;;;;22.40;61.00;;;;;;5087082;27;82918;-50
2022/07/29 07:56:34;;;;;;;;;;;22.30;61.00;;;;;;5086627;27;82125;-45
2022/07/29 07:58:59;;;;;;;;;;;22.40;61.00;;;;;;5087272;27;81484;-52
2022/07/29 08:01:25;;;;;;;;;;;22.40;61.20;;;;;;5086780;27;83496;-46
2022/07/29 08:03:50;;;;;;;;;;;22.40;61.20;;;;;;5086899;27;82078;-50
2022/07/29 08:06:16;;;;;;;;;;;22.40;61.10;;;;;;5085662;27;83031;-50
2022/07/29 08:08:41;;;;;;;;;;;22.40;61.10;;;;;;5089280;27;83433;-49
2022/07/29 08:11:07;;;;;;;;;;;22.40;61.20;;;;;;5086810;27;82466;-47
2022/07/29 08:13:33;;;;;;;;;;;22.40;61.10;;;;;;5086707;27;82115;-49
2022/07/29 08:16:02;;;;;;;;;;;22.40;61.10;;;;;;5086711;27;82122;-43
2022/07/29 08:18:28;;;;;;;;;;;22.40;61.00;;;;;;5086308;27;83887;-52
2022/07/29 08:20:54;;;;;;;;;;;22.40;61.20;;;;;;5086534;27;82362;-46
2022/07/29 08:23:21;;;;;;;;;;;22.40;60.90;;;;;;5086829;27;81399;-43
2022/07/29 08:25:46;;;;;;;;;;;22.50;61.10;;;;;;5086435;27;81942;-48
2022/07/29 08:28:12;;;;;;;;;;;22.40;61.30;;;;;;5086411;27;83159;-46
2022/07/29 08:30:37;;;;;;;;;;;22.40;60.80;;;;;;5088426;27;82894;-50
2022/07/29 08:33:03;;;;;;;;;;;22.40;60.90;;;;;;5086439;27;83014;-48
2022/07/29 08:35:29;;;;;;;;;;;22.50;60.80;;;;;;5086404;27;82086;-53
2022/07/29 08:37:54;;;;;;;;;;;22.50;60.80;;;;;;5086589;27;82391;-48
2022/07/29 08:40:20;;;;;;;;;;;22.50;60.30;;;;;;5085642;27;83415;-48
2022/07/29 08:42:46;;;;;;;;;;;22.50;60.50;;;;;;5086575;27;82019;-47
2022/07/29 08:45:11;;;;;;;;;;;22.50;60.70;;;;;;5086384;27;82445;-47
2022/07/29 08:47:39;;;;;;;;;;;22.50;60.70;;;;;;5086612;27;82421;-51
2022/07/29 08:50:05;;;;;;;;;;;22.50;60.80;;;;;;5086153;27;82364;-48
2022/07/29 08:52:32;;;;;;;;;;;22.50;60.60;;;;;;5088845;27;82292;-50
2022/07/29 08:54:58;;;;;;;;;;;22.50;60.60;;;;;;5085509;27;82934;-47
2022/07/29 08:57:24;;;;;;;;;;;22.50;60.40;;;;;;5086102;27;83499;-48
2022/07/29 08:59:50;;;;;;;;;;;22.60;61.10;;;;;;5085459;27;84488;-44
2022/07/29 09:02:20;;;;;;;;;;;22.60;60.60;;;;;;5084581;27;82047;-48
2022/07/29 09:04:46;;;;;;;;;;;22.60;60.40;;;;;;5085523;27;82293;-46
2022/07/29 09:07:15;;;;;;;;;;;22.60;60.30;;;;;;5085804;27;84328;-48
2022/07/29 09:09:40;;;;;;;;;;;22.60;60.20;;;;;;5085419;27;82093;-47
2022/07/29 09:12:07;;;;;;;;;;;22.60;60.40;;;;;;5086320;27;84126;-47
2022/07/29 09:14:33;;;;;;;;;;;22.60;60.20;;;;;;5088270;27;83065;-45
2022/07/29 09:16:59;;;;;;;;;;;22.70;60.20;;;;;;5085949;27;82475;-48
2022/07/29 09:19:26;;;;;;;;;;;22.60;60.20;;;;;;5085729;27;83580;-48
2022/07/29 09:21:58;;;;;;;;;;;22.70;60.20;;;;;;5089179;27;82098;-48
2022/07/29 09:24:24;;;;;;;;;;;22.70;60.10;;;;;;5089186;27;82440;-49
2022/07/29 09:26:50;;;;;;;;;;;22.70;60.10;;;;;;5088938;27;82061;-49
2022/07/29 09:29:16;;;;;;;;;;;22.70;60.10;;;;;;5089159;27;82097;-50
2022/07/29 09:31:43;;;;;;;;;;;22.70;60.10;;;;;;5088950;27;82900;-45
2022/07/29 09:34:10;;;;;;;;;;;22.70;60.20;;;;;;5088943;27;82970;-48
2022/07/29 09:36:40;;;;;;;;;;;22.80;60.30;;;;;;5090540;27;81273;-45
2022/07/29 09:39:05;;;;;;;;;;;22.80;60.40;;;;;;5088400;27;84427;-49
2022/07/29 09:41:43;;;;;;;;;;;22.80;60.10;;;;;;5089177;27;81978;-47
2022/07/29 09:44:08;;;;;;;;;;;22.80;60.30;;;;;;5088584;27;82871;-48
2022/07/29 09:46:34;;;;;;;;;;;22.80;60.20;;;;;;5088657;27;82007;-49
2022/07/29 09:49:10;;;;;;;;;;;22.80;60.10;;;;;;5088584;27;82099;-48
2022/07/29 09:51:35;;;;;;;;;;;22.80;60.20;;;;;;5088630;27;82305;-46
2022/07/29 09:54:03;;;;;;;;;;;22.80;60.20;;;;;;5088786;27;83050;-47
2022/07/29 09:56:42;;;;;;;;;;;22.90;60.20;;;;;;5089954;27;82180;-47
2022/07/29 09:59:08;;;;;;;;;;;22.90;60.50;;;;;;5088353;27;83205;-47
2022/07/29 10:01:35;;;;;;;;;;;22.90;60.30;;;;;;5089085;27;81380;-49
2022/07/29 10:04:01;;;;;;;;;;;22.90;60.40;;;;;;5088331;27;83133;-46
2022/07/29 10:06:27;;;;;;;;;;;22.90;60.60;;;;;;5087713;27;83200;-47
2022/07/29 10:08:53;;;;;;;;;;;23.00;60.80;;;;;;5088173;27;83028;-48
2022/07/29 10:11:18;;;;;;;;;;;23.00;60.80;;;;;;5088610;27;83933;-47
2022/07/29 10:13:47;;;;;;;;;;;23.00;60.60;;;;;;5088365;27;83060;-45
2022/07/29 10:16:13;;;;;;;;;;;23.00;60.40;;;;;;5088398;27;82047;-48
2022/07/29 10:18:39;;;;;;;;;;;23.00;60.80;;;;;;5090741;27;82358;-49
2022/07/29 10:21:05;;;;;;;;;;;23.00;60.80;;;;;;5088638;27;82551;-49
2022/07/29 10:23:31;;;;;;;;;;;23.00;60.60;;;;;;5088518;27;82534;-48
2022/07/29 10:25:57;;;;;;;;;;;23.10;60.80;;;;;;5088610;27;82172;-51
2022/07/29 10:28:22;;;;;;;;;;;23.10;60.80;;;;;;5088315;27;82171;-47
2022/07/29 10:30:50;;;;;;;;;;;23.10;60.70;;;;;;5088452;27;82243;-52
2022/07/29 10:33:15;;;;;;;;;;;23.10;60.80;;;;;;5086984;27;85239;-48
2022/07/29 10:35:49;;;;;;;;;;;23.10;60.80;;;;;;5088124;27;82398;-47
2022/07/29 10:38:26;;;;;;;;;;;23.10;61.30;;;;;;5088083;27;84189;-45
2022/07/29 10:43:42;;;;;;;;;;;23.20;61.30;;;;;;5088123;27;82098;-49
2022/07/29 10:46:08;;;;;;;;;;;23.20;60.80;;;;;;5087586;27;82097;-49
2022/07/29 10:48:34;;;;;;;;;;;23.30;61.00;;;;;;5087800;27;82113;-48
2022/07/29 10:51:00;;;;;;;;;;;23.30;60.90;;;;;;5088112;27;83973;-48
2022/07/29 10:53:44;;;;;;;;;;;23.30;60.90;;;;;;5087363;27;83405;-44
2022/07/29 10:56:23;;;;;;;;;;;23.30;60.80;;;;;;5087993;27;82086;-49
2022/07/29 10:59:08;;;;;;;;;;;23.30;60.70;;;;;;5087187;27;82938;-47
2022/07/29 11:01:34;;;;;;;;;;;23.30;60.90;;;;;;5087232;27;82148;-51
2022/07/29 11:03:59;;;;;;;;;;;23.40;60.70;;;;;;5090315;27;82253;-48
2022/07/29 11:06:44;;;;;;;;;;;23.40;60.80;;;;;;5086990;27;83023;-49
2022/07/29 11:09:18;;;;;;;;;;;23.40;60.60;;;;;;5087267;27;82337;-48
2022/07/29 11:11:43;;;;;;;;;;;23.40;60.80;;;;;;5087530;27;84016;-46
2022/07/29 11:14:09;;;;;;;;;;;23.40;60.80;;;;;;5087483;27;83115;-45
2022/07/29 11:16:53;;;;;;;;;;;23.50;61.20;;;;;;5087720;27;81313;-46
2022/07/29 11:19:19;;;;;;;;;;;23.50;61.10;;;;;;5087593;27;81945;-44
2022/07/29 11:21:49;;;;;;;;;;;23.50;60.90;;;;;;5087077;27;83517;-50
2022/07/29 11:24:18;;;;;;;;;;;23.60;60.80;;;;;;5086705;27;82886;-52
2022/07/29 11:26:43;;;;;;;;;;;23.60;61.20;;;;;;5090089;27;83243;-48
2022/07/29 11:29:16;;;;;;;;;;;23.60;60.90;;;;;;5087522;27;82001;-52
2022/07/29 11:31:43;;;;;;;;;;;23.60;60.90;;;;;;5087141;27;82282;-47
2022/07/29 11:34:22;;;;;;;;;;;23.60;60.80;;;;;;5087202;27;82453;-50
2022/07/29 11:37:20;;;;;;;;;;;23.70;60.80;;;;;;5086929;27;82114;-50
2022/07/29 11:39:46;;;;;;;;;;;23.70;60.90;;;;;;5062993;27;83072;-47
2022/07/29 11:42:21;;;;;;;;;;;23.70;61.10;;;;;;5086238;27;83639;-48
2022/07/29 11:45:07;;;;;;;;;;;23.70;61.00;;;;;;5087176;27;82098;-48
2022/07/29 11:47:34;;;;;;;;;;;23.70;60.70;;;;;;5089845;27;82600;-48
2022/07/29 11:50:00;;;;;;;;;;;23.80;60.80;;;;;;5086339;27;83098;-48
2022/07/29 11:52:46;;;;;;;;;;;23.80;60.80;;;;;;5087112;27;83364;-50
2022/07/29 11:55:15;;;;;;;;;;;23.90;61.00;;;;;;5086302;27;83812;-48
2022/07/29 11:57:50;;;;;;;;;;;23.90;60.90;;;;;;5086983;27;82352;-46
2022/07/29 12:00:23;;;;;;;;;;;23.90;61.00;;;;;;5086662;27;83894;-47
2022/07/29 12:02:49;;;;;;;;;;;23.90;60.90;;;;;;5086417;27;84514;-47
2022/07/29 12:05:14;;;;;;;;;;;24.00;60.80;;;;;;5084623;27;82082;-51
2022/07/29 12:07:40;;;;;;;;;;;24.00;61.40;;;;;;5087486;27;82418;-45
2022/07/29 12:10:07;;;;;;;;;;;24.00;60.60;;;;;;5089241;27;84238;-48
2022/07/29 12:12:33;;;;;;;;;;;24.00;60.70;;;;;;5086691;27;83894;-47
2022/07/29 12:15:10;;;;;;;;;;;24.10;60.40;;;;;;5085659;27;85248;-50
2022/07/29 12:17:35;;;;;;;;;;;24.10;60.60;;;;;;5086466;27;82927;-49
2022/07/29 12:20:02;;;;;;;;;;;24.20;60.50;;;;;;5086041;27;84368;-47
2022/07/29 12:22:29;;;;;;;;;;;24.20;60.50;;;;;;5086017;27;84317;-47
2022/07/29 12:24:56;;;;;;;;;;;24.20;60.80;;;;;;5086544;27;81963;-44
2022/07/29 12:27:22;;;;;;;;;;;24.20;60.90;;;;;;5086410;27;83036;-49
2022/07/29 12:30:01;;;;;;;;;;;24.20;60.60;;;;;;5086279;27;82901;-48
2022/07/29 12:32:33;;;;;;;;;;;24.20;60.90;;;;;;5089703;27;81246;-50
2022/07/29 12:35:00;;;;;;;;;;;24.30;60.70;;;;;;5086223;27;84218;-49
2022/07/29 12:37:25;;;;;;;;;;;24.30;60.80;;;;;;5086649;27;81985;-48
2022/07/29 12:39:51;;;;;;;;;;;24.30;60.70;;;;;;5085997;27;82998;-48
2022/07/29 12:42:17;;;;;;;;;;;24.40;60.60;;;;;;5086065;27;84815;-45
2022/07/29 12:44:44;;;;;;;;;;;24.40;60.70;;;;;;5086147;27;82018;-46
2022/07/29 12:47:09;;;;;;;;;;;24.40;60.70;;;;;;5086324;27;82344;-46
2022/07/29 12:49:35;;;;;;;;;;;24.50;60.50;;;;;;5086278;27;83164;-48
2022/07/29 12:52:01;;;;;;;;;;;24.50;60.70;;;;;;5086306;27;82056;-48
2022/07/29 12:54:26;;;;;;;;;;;24.50;60.70;;;;;;5089339;27;82991;-51
2022/07/29 12:56:58;;;;;;;;;;;24.60;60.70;;;;;;5089963;27;81357;-49
2022/07/29 12:59:23;;;;;;;;;;;24.60;60.60;;;;;;5089619;27;81987;-47
2022/07/29 13:01:50;;;;;;;;;;;24.60;60.60;;;;;;5089474;27;83032;-45
2022/07/29 13:04:25;;;;;;;;;;;24.60;60.50;;;;;;5088873;27;83039;-49
2022/07/29 13:06:57;;;;;;;;;;;24.60;60.40;;;;;;5089371;27;83995;-51
2022/07/29 13:09:23;;;;;;;;;;;24.60;60.40;;;;;;5089388;27;82876;-47
2022/07/29 13:11:51;;;;;;;;;;;24.60;60.40;;;;;;5089619;27;81964;-47
2022/07/29 13:14:33;;;;;;;;;;;24.60;60.60;;;;;;5089288;27;82639;-49
2022/07/29 13:17:00;;;;;;;;;;;24.70;60.30;;;;;;5091889;27;82121;-47
2022/07/29 13:19:40;;;;;;;;;;;24.70;60.20;;;;;;5089449;27;82322;-53
2022/07/29 13:22:05;;;;;;;;;;;24.80;60.30;;;;;;5089584;27;83858;-48
2022/07/29 13:24:31;;;;;;;;;;;24.80;60.20;;;;;;5089056;27;82099;-52
2022/07/29 13:26:57;;;;;;;;;;;24.90;60.20;;;;;;5089449;27;82383;-44
2022/07/29 13:29:23;;;;;;;;;;;24.90;60.20;;;;;;5088242;27;85299;-51
2022/07/29 13:31:48;;;;;;;;;;;24.90;60.10;;;;;;5089347;27;82215;-45
2022/07/29 13:34:14;;;;;;;;;;;24.90;60.30;;;;;;5089360;27;81802;-49
2022/07/29 13:36:39;;;;;;;;;;;25.00;60.30;;;;;;5088714;27;83484;-48
2022/07/29 13:39:05;;;;;;;;;;;25.00;60.20;;;;;;5092053;27;82153;-48
2022/07/29 13:41:30;;;;;;;;;;;25.10;60.20;;;;;;5088644;27;82953;-49
2022/07/29 13:43:56;;;;;;;;;;;25.10;60.10;;;;;;5088965;27;82119;-47
2022/07/29 13:46:21;;;;;;;;;;;25.00;60.10;;;;;;5089562;27;81699;-45
2022/07/29 13:48:47;;;;;;;;;;;25.10;60.20;;;;;;5088663;27;83021;-48
2022/07/29 13:51:12;;;;;;;;;;;25.20;60.10;;;;;;5089048;27;82345;-48
2022/07/29 13:53:38;;;;;;;;;;;25.20;60.20;;;;;;5088064;27;84065;-49
2022/07/29 13:56:05;;;;;;;;;;;25.20;60.10;;;;;;5088877;27;83273;-45
2022/07/29 13:58:32;;;;;;;;;;;25.20;60.10;;;;;;5091782;27;82010;-47
2022/07/29 14:00:58;;;;;;;;;;;25.30;60.00;;;;;;5088281;27;82671;-48
2022/07/29 14:03:24;;;;;;;;;;;25.30;60.00;;;;;;5088543;27;82210;-50
2022/07/29 14:05:49;;;;;;;;;;;25.40;59.90;;;;;;5087837;27;82125;-47
2022/07/29 14:08:15;;;;;;;;;;;25.40;59.80;;;;;;5088674;27;83085;-47
2022/07/29 14:10:40;;;;;;;;;;;25.40;60.00;;;;;;5089152;27;81338;-48
2022/07/29 14:13:06;;;;;;;;;;;25.40;59.90;;;;;;5088378;27;83067;-52
2022/07/29 14:15:31;;;;;;;;;;;25.40;59.80;;;;;;5088634;27;82130;-47
2022/07/29 14:17:57;;;;;;;;;;;25.50;59.90;;;;;;5087818;27;83028;-47
2022/07/29 14:20:22;;;;;;;;;;;25.50;59.80;;;;;;5091153;27;83870;-48
2022/07/29 14:22:48;;;;;;;;;;;25.50;59.70;;;;;;5088544;27;81998;-50